createdAt,value
2022-08-01T00:00:28.607Z,21.14
2022-08-01T00:01:28.632Z,21.17
2022-08-01T00:02:28.608Z,21.14
2022-08-01T00:03:28.588Z,21.11
2022-08-01T00:04:28.559Z,21.09
2022-08-01T00:05:28.567Z,21.09
2022-08-01T00:06:28.536Z,21.09
2022-08-01T00:07:28.517Z,21.09
2022-08-01T00:08:28.515Z,21.09
2022-08-01T00:09:28.497Z,21.14
2022-08-01T00:10:28.489Z,21.16
2022-08-01T00:11:28.506Z,21.16
2022-08-01T00:12:28.481Z,21.14
2022-08-01T00:13:28.455Z,21.14
2022-08-01T00:14:32.477Z,21.13
2022-08-01T00:15:28.427Z,21.14
2022-08-01T00:16:28.417Z,21.11
2022-08-01T00:17:28.417Z,21.11
2022-08-01T00:18:28.398Z,21.14
2022-08-01T00:19:28.394Z,21.13
2022-08-01T00:20:28.376Z,21.14
2022-08-01T00:21:28.367Z,21.14
2022-08-01T00:22:28.357Z,21.16
2022-08-01T00:23:28.355Z,21.14
2022-08-01T00:24:28.329Z,21.14
2022-08-01T00:25:34.453Z,21.14
2022-08-01T00:26:29.304Z,21.13
2022-08-01T00:27:29.236Z,21.13
2022-08-01T00:28:28.283Z,21.11
2022-08-01T00:30:10.840Z,21.13
2022-08-01T00:30:29.265Z,21.14
2022-08-01T00:31:28.245Z,21.11
2022-08-01T00:32:28.294Z,21.11
2022-08-01T00:33:28.214Z,21.11
2022-08-01T00:34:28.214Z,21.11
2022-08-01T00:35:28.204Z,21.09
2022-08-01T00:36:28.195Z,21.09
2022-08-01T00:37:28.185Z,21.08
2022-08-01T00:38:28.164Z,21.06
2022-08-01T00:39:28.155Z,21.05
2022-08-01T00:40:28.154Z,21.04
2022-08-01T00:41:28.125Z,21.02
2022-08-01T00:42:28.122Z,20.98
2022-08-01T00:43:28.104Z,20.99
2022-08-01T00:44:28.102Z,20.98
2022-08-01T00:45:28.093Z,20.93
2022-08-01T00:46:28.073Z,20.93
2022-08-01T00:47:28.054Z,20.90
2022-08-01T00:48:28.044Z,20.89
2022-08-01T00:49:28.167Z,20.87
2022-08-01T00:50:28.027Z,20.86
2022-08-01T00:51:28.014Z,20.86
2022-08-01T00:52:28.005Z,20.83
2022-08-01T00:53:28.002Z,20.83
2022-08-01T00:54:29.031Z,20.81
2022-08-01T00:55:27.964Z,20.79
2022-08-01T00:56:27.953Z,20.77
2022-08-01T00:58:03.575Z,20.76
2022-08-01T00:58:28.933Z,20.74
2022-08-01T00:59:27.930Z,20.71
2022-08-01T01:00:27.978Z,20.71
2022-08-01T01:01:39.227Z,20.68
2022-08-01T01:02:28.903Z,20.69
2022-08-01T01:03:56.323Z,20.66
2022-08-01T01:04:28.872Z,20.65
2022-08-01T01:05:27.862Z,20.64
2022-08-01T01:06:28.069Z,20.62
2022-08-01T01:07:27.833Z,20.61
2022-08-01T01:08:27.842Z,20.61
2022-08-01T01:09:27.812Z,20.59
2022-08-01T01:10:27.803Z,20.58
2022-08-01T01:11:27.782Z,20.58
2022-08-01T01:12:27.781Z,20.54
2022-08-01T01:13:27.762Z,20.50
2022-08-01T01:14:27.762Z,20.49
2022-08-01T01:15:27.742Z,20.47
2022-08-01T01:16:27.741Z,20.43
2022-08-01T01:17:31.247Z,20.39
2022-08-01T01:18:28.712Z,20.38
2022-08-01T01:19:27.711Z,20.35
2022-08-01T01:20:27.701Z,20.35
2022-08-01T01:21:27.673Z,20.35
2022-08-01T01:22:27.663Z,20.35
2022-08-01T01:23:27.655Z,20.33
2022-08-01T01:24:27.649Z,20.33
2022-08-01T01:25:27.644Z,20.30
2022-08-01T01:26:27.631Z,20.31
2022-08-01T01:27:28.333Z,20.28
2022-08-01T01:28:27.600Z,20.28
2022-08-01T01:29:27.592Z,20.27
2022-08-01T01:30:27.591Z,20.24
2022-08-01T01:31:27.560Z,20.23
2022-08-01T01:32:30.793Z,20.21
2022-08-01T01:33:27.541Z,20.23
2022-08-01T01:34:27.531Z,20.24
2022-08-01T01:35:27.555Z,20.23
2022-08-01T01:36:27.511Z,20.23
2022-08-01T01:37:27.521Z,20.23
2022-08-01T01:38:27.482Z,20.24
2022-08-01T01:39:27.480Z,20.21
2022-08-01T01:40:27.496Z,20.23
2022-08-01T01:41:27.480Z,20.23
2022-08-01T01:42:27.440Z,20.20
2022-08-01T01:43:29.005Z,20.23
2022-08-01T01:44:28.422Z,20.20
2022-08-01T01:45:27.410Z,20.16
2022-08-01T01:46:27.391Z,20.18
2022-08-01T01:47:27.401Z,20.13
2022-08-01T01:48:27.379Z,20.13
2022-08-01T01:49:27.404Z,20.12
2022-08-01T01:50:27.350Z,20.12
2022-08-01T01:51:27.360Z,20.09
2022-08-01T01:52:27.330Z,20.09
2022-08-01T01:53:27.320Z,20.09
2022-08-01T01:54:27.302Z,20.10
2022-08-01T01:55:27.299Z,20.09
2022-08-01T01:56:27.283Z,20.08
2022-08-01T01:57:27.279Z,20.06
2022-08-01T01:58:27.281Z,20.03
2022-08-01T01:59:27.254Z,20.03
2022-08-01T02:00:29.980Z,20.00
2022-08-01T02:01:58.811Z,20.00
2022-08-01T02:02:28.337Z,20.00
2022-08-01T02:03:27.220Z,19.98
2022-08-01T02:04:27.199Z,19.97
2022-08-01T02:05:27.189Z,19.95
2022-08-01T02:06:27.170Z,19.95
2022-08-01T02:07:27.162Z,19.97
2022-08-01T02:08:27.149Z,19.95
2022-08-01T02:09:27.150Z,19.94
2022-08-01T02:10:28.620Z,19.94
2022-08-01T02:11:27.121Z,19.94
2022-08-01T02:12:27.109Z,19.93
2022-08-01T02:13:27.094Z,19.93
2022-08-01T02:14:27.081Z,19.88
2022-08-01T02:15:27.079Z,19.90
2022-08-01T02:16:27.059Z,19.88
2022-08-01T02:17:27.048Z,19.87
2022-08-01T02:18:27.042Z,19.86
2022-08-01T02:19:27.038Z,19.84
2022-08-01T02:20:27.017Z,19.84
2022-08-01T02:21:27.001Z,19.84
2022-08-01T02:22:26.990Z,19.84
2022-08-01T02:23:26.986Z,19.84
2022-08-01T02:24:30.515Z,19.84
2022-08-01T02:25:26.973Z,19.86
2022-08-01T02:26:26.949Z,19.84
2022-08-01T02:27:26.947Z,19.86
2022-08-01T02:28:26.936Z,19.84
2022-08-01T02:29:26.921Z,19.86
2022-08-01T02:30:26.911Z,19.87
2022-08-01T02:31:26.888Z,19.84
2022-08-01T02:32:26.881Z,19.84
2022-08-01T02:33:26.869Z,19.80
2022-08-01T02:34:26.857Z,19.78
2022-08-01T02:35:26.867Z,19.78
2022-08-01T02:36:29.067Z,19.78
2022-08-01T02:37:27.817Z,19.76
2022-08-01T02:38:26.809Z,19.78
2022-08-01T02:39:26.800Z,19.76
2022-08-01T02:40:26.788Z,19.75
2022-08-01T02:41:26.788Z,19.76
2022-08-01T02:42:26.768Z,19.75
2022-08-01T02:43:26.749Z,19.72
2022-08-01T02:44:26.737Z,19.73
2022-08-01T02:45:26.738Z,19.70
2022-08-01T02:46:26.738Z,19.69
2022-08-01T02:47:26.716Z,19.68
2022-08-01T02:48:26.704Z,19.66
2022-08-01T02:49:26.767Z,19.65
2022-08-01T02:50:26.678Z,19.63
2022-08-01T02:51:26.658Z,19.61
2022-08-01T02:52:26.665Z,19.60
2022-08-01T02:53:44.087Z,19.60
2022-08-01T02:54:27.632Z,19.58
2022-08-01T02:55:26.634Z,19.58
2022-08-01T02:56:26.607Z,19.60
2022-08-01T02:57:33.578Z,19.58
2022-08-01T02:58:29.327Z,19.57
2022-08-01T02:59:26.587Z,19.55
2022-08-01T03:00:26.557Z,19.54
2022-08-01T03:01:27.127Z,19.54
2022-08-01T03:02:26.537Z,19.53
2022-08-01T03:03:26.539Z,19.51
2022-08-01T03:04:26.517Z,19.48
2022-08-01T03:05:26.525Z,19.50
2022-08-01T03:06:26.487Z,19.48
2022-08-01T03:07:34.512Z,19.48
2022-08-01T03:08:27.486Z,19.46
2022-08-01T03:09:26.459Z,19.43
2022-08-01T03:10:26.447Z,19.43
2022-08-01T03:11:26.437Z,19.42
2022-08-01T03:12:26.426Z,19.42
2022-08-01T03:13:26.418Z,19.42
2022-08-01T03:14:26.419Z,19.38
2022-08-01T03:15:26.385Z,19.39
2022-08-01T03:16:26.386Z,19.38
2022-08-01T03:17:26.365Z,19.38
2022-08-01T03:18:26.356Z,19.38
2022-08-01T03:19:26.346Z,19.36
2022-08-01T03:20:26.335Z,19.35
2022-08-01T03:21:26.317Z,19.35
2022-08-01T03:22:26.305Z,19.33
2022-08-01T03:23:37.816Z,19.35
2022-08-01T03:24:27.306Z,19.32
2022-08-01T03:25:26.278Z,19.32
2022-08-01T03:26:26.278Z,19.32
2022-08-01T03:27:26.259Z,19.31
2022-08-01T03:28:29.652Z,19.29
2022-08-01T03:29:26.238Z,19.29
2022-08-01T03:30:26.219Z,19.25
2022-08-01T03:31:26.215Z,19.28
2022-08-01T03:32:26.220Z,19.25
2022-08-01T03:33:26.187Z,19.24
2022-08-01T03:34:26.186Z,19.24
2022-08-01T03:35:26.164Z,19.23
2022-08-01T03:36:26.164Z,19.21
2022-08-01T03:37:26.146Z,19.20
2022-08-01T03:38:26.131Z,19.20
2022-08-01T03:39:26.115Z,19.18
2022-08-01T03:40:26.114Z,19.15
2022-08-01T03:41:26.094Z,19.17
2022-08-01T03:42:26.105Z,19.14
2022-08-01T03:43:26.066Z,19.13
2022-08-01T03:44:26.055Z,19.10
2022-08-01T03:45:26.045Z,19.10
2022-08-01T03:46:26.034Z,19.10
2022-08-01T03:47:26.032Z,19.06
2022-08-01T03:48:26.024Z,19.06
2022-08-01T03:49:26.065Z,19.08
2022-08-01T03:50:25.994Z,19.06
2022-08-01T03:51:25.985Z,19.05
2022-08-01T03:52:25.973Z,19.01
2022-08-01T03:53:25.966Z,18.99
2022-08-01T03:54:25.945Z,18.98
2022-08-01T03:55:25.933Z,18.97
2022-08-01T03:56:25.925Z,18.94
2022-08-01T03:57:36.748Z,18.92
2022-08-01T03:58:26.924Z,18.92
2022-08-01T03:59:25.883Z,18.91
2022-08-01T04:00:25.874Z,18.92
2022-08-01T04:01:25.920Z,18.94
2022-08-01T04:02:25.853Z,18.94
2022-08-01T04:03:25.858Z,18.94
2022-08-01T04:04:25.857Z,18.94
2022-08-01T04:05:25.817Z,18.92
2022-08-01T04:06:25.814Z,18.94
2022-08-01T04:07:25.798Z,18.92
2022-08-01T04:08:27.284Z,18.94
2022-08-01T04:09:25.781Z,18.92
2022-08-01T04:10:25.778Z,18.91
2022-08-01T04:11:25.755Z,18.87
2022-08-01T04:12:25.752Z,18.86
2022-08-01T04:13:25.735Z,18.84
2022-08-01T04:14:25.753Z,18.84
2022-08-01T04:15:25.714Z,18.84
2022-08-01T04:16:25.696Z,18.82
2022-08-01T04:17:25.683Z,18.82
2022-08-01T04:18:25.693Z,18.79
2022-08-01T04:19:25.682Z,18.80
2022-08-01T04:20:25.663Z,18.77
2022-08-01T04:21:25.662Z,18.77
2022-08-01T04:22:25.631Z,18.77
2022-08-01T04:23:25.614Z,18.77
2022-08-01T04:24:25.602Z,18.79
2022-08-01T04:25:25.600Z,18.80
2022-08-01T04:26:25.583Z,18.80
2022-08-01T04:27:50.766Z,18.83
2022-08-01T04:28:26.552Z,18.84
2022-08-01T04:29:25.551Z,18.86
2022-08-01T04:30:25.619Z,18.90
2022-08-01T04:31:25.522Z,18.90
2022-08-01T04:32:25.512Z,18.90
2022-08-01T04:33:25.512Z,18.94
2022-08-01T04:34:25.495Z,18.91
2022-08-01T04:36:02.374Z,18.92
2022-08-01T04:36:26.460Z,18.92
2022-08-01T04:37:25.459Z,18.94
2022-08-01T04:38:25.451Z,18.95
2022-08-01T04:39:25.443Z,18.95
2022-08-01T04:40:25.420Z,18.94
2022-08-01T04:41:25.410Z,18.95
2022-08-01T04:42:30.119Z,18.94
2022-08-01T04:43:26.410Z,18.91
2022-08-01T04:44:27.816Z,18.92
2022-08-01T04:45:25.361Z,18.92
2022-08-01T04:46:25.351Z,18.94
2022-08-01T04:47:25.341Z,18.94
2022-08-01T04:48:25.347Z,18.95
2022-08-01T04:49:25.398Z,18.95
2022-08-01T04:50:25.311Z,18.97
2022-08-01T04:51:25.302Z,18.97
2022-08-01T04:52:25.377Z,18.97
2022-08-01T04:53:25.289Z,18.97
2022-08-01T04:54:25.262Z,18.95
2022-08-01T04:55:25.255Z,18.98
2022-08-01T04:56:25.249Z,18.98
2022-08-01T04:57:25.237Z,18.99
2022-08-01T04:58:25.230Z,19.01
2022-08-01T04:59:25.208Z,18.99
2022-08-01T05:00:25.193Z,19.01
2022-08-01T05:01:25.271Z,19.01
2022-08-01T05:02:25.169Z,19.01
2022-08-01T05:03:25.169Z,19.01
2022-08-01T05:04:25.149Z,19.01
2022-08-01T05:05:25.138Z,19.02
2022-08-01T05:06:25.120Z,19.01
2022-08-01T05:07:25.131Z,19.02
2022-08-01T05:08:25.098Z,19.02
2022-08-01T05:09:29.382Z,19.01
2022-08-01T05:10:26.077Z,19.02
2022-08-01T05:11:25.068Z,19.01
2022-08-01T05:12:25.071Z,19.02
2022-08-01T05:13:25.047Z,19.02
2022-08-01T05:14:25.030Z,19.05
2022-08-01T05:15:25.026Z,19.05
2022-08-01T05:16:25.020Z,19.01
2022-08-01T05:17:25.003Z,18.99
2022-08-01T05:18:28.204Z,18.99
2022-08-01T05:19:24.978Z,18.99
2022-08-01T05:20:24.967Z,18.98
2022-08-01T05:21:24.965Z,18.95
2022-08-01T05:22:24.946Z,18.94
2022-08-01T05:23:42.013Z,18.97
2022-08-01T05:24:25.918Z,18.92
2022-08-01T05:25:55.884Z,18.94
2022-08-01T05:26:25.898Z,18.94
2022-08-01T05:27:24.888Z,18.95
2022-08-01T05:28:24.877Z,18.95
2022-08-01T05:29:24.868Z,18.95
2022-08-01T05:30:24.849Z,18.97
2022-08-01T05:31:24.837Z,18.97
2022-08-01T05:32:24.826Z,18.95
2022-08-01T05:33:24.828Z,18.97
2022-08-01T05:34:24.806Z,18.98
2022-08-01T05:35:24.797Z,18.99
2022-08-01T05:36:25.787Z,18.99
2022-08-01T05:37:24.775Z,19.05
2022-08-01T05:38:24.765Z,19.02
2022-08-01T05:39:24.777Z,19.05
2022-08-01T05:40:24.736Z,19.10
2022-08-01T05:41:24.746Z,19.06
2022-08-01T05:42:24.727Z,19.10
2022-08-01T05:43:28.753Z,19.14
2022-08-01T05:44:24.697Z,19.15
2022-08-01T05:45:24.706Z,19.18
2022-08-01T05:46:26.224Z,19.18
2022-08-01T05:47:24.664Z,19.23
2022-08-01T05:48:24.646Z,19.25
2022-08-01T05:49:24.705Z,19.29
2022-08-01T05:50:24.638Z,19.32
2022-08-01T05:51:24.615Z,19.33
2022-08-01T05:52:24.596Z,19.39
2022-08-01T05:53:24.593Z,19.39
2022-08-01T05:54:24.576Z,19.42
2022-08-01T05:55:24.580Z,19.48
2022-08-01T05:56:24.555Z,19.50
2022-08-01T05:57:24.544Z,19.53
2022-08-01T05:58:24.526Z,19.54
2022-08-01T05:59:24.523Z,19.55
2022-08-01T06:00:24.514Z,19.58
2022-08-01T06:01:24.495Z,19.60
2022-08-01T06:02:24.534Z,19.63
2022-08-01T06:03:24.475Z,19.66
2022-08-01T06:04:24.465Z,19.66
2022-08-01T06:05:24.467Z,19.69
2022-08-01T06:06:25.356Z,19.73
2022-08-01T06:07:24.425Z,19.79
2022-08-01T06:08:24.414Z,19.84
2022-08-01T06:09:24.404Z,19.87
2022-08-01T06:10:24.406Z,19.90
2022-08-01T06:11:24.395Z,19.97
2022-08-01T06:12:24.374Z,20.06
2022-08-01T06:13:24.364Z,20.12
2022-08-01T06:14:24.354Z,20.23
2022-08-01T06:15:24.334Z,20.27
2022-08-01T06:16:24.343Z,20.33
2022-08-01T06:17:24.315Z,20.41
2022-08-01T06:18:24.304Z,20.46
2022-08-01T06:19:24.294Z,20.51
2022-08-01T06:20:24.284Z,20.58
2022-08-01T06:21:24.292Z,20.66
2022-08-01T06:22:24.274Z,20.72
2022-08-01T06:23:31.842Z,20.81
2022-08-01T06:24:25.235Z,20.86
2022-08-01T06:25:24.223Z,20.91
2022-08-01T06:26:24.247Z,20.98
2022-08-01T06:27:24.203Z,21.04
2022-08-01T06:28:24.211Z,21.08
2022-08-01T06:29:24.196Z,21.16
2022-08-01T06:30:24.174Z,21.19
2022-08-01T06:31:24.152Z,21.27
2022-08-01T06:32:26.640Z,21.36
2022-08-01T06:33:24.134Z,21.42
2022-08-01T06:34:24.134Z,21.46
2022-08-01T06:35:24.112Z,21.53
2022-08-01T06:36:24.103Z,21.57
2022-08-01T06:37:24.151Z,21.61
2022-08-01T06:38:24.080Z,21.66
2022-08-01T06:39:24.064Z,21.67
2022-08-01T06:40:24.052Z,21.72
2022-08-01T06:41:24.043Z,21.78
2022-08-01T06:42:24.042Z,21.82
2022-08-01T06:43:24.022Z,21.83
2022-08-01T06:44:24.013Z,21.90
2022-08-01T06:45:23.992Z,21.92
2022-08-01T06:46:23.989Z,21.97
2022-08-01T06:47:24.982Z,22.02
2022-08-01T06:48:23.961Z,22.06
2022-08-01T06:49:24.020Z,22.09
2022-08-01T06:50:23.944Z,22.14
2022-08-01T06:51:23.921Z,22.16
2022-08-01T06:52:23.931Z,22.22
2022-08-01T06:53:23.903Z,22.23
2022-08-01T06:54:23.892Z,22.25
2022-08-01T06:55:23.881Z,22.29
2022-08-01T06:56:23.871Z,22.32
2022-08-01T06:57:23.871Z,22.35
2022-08-01T06:58:30.973Z,22.39
2022-08-01T06:59:24.831Z,22.46
2022-08-01T07:00:23.830Z,22.46
2022-08-01T07:01:23.881Z,22.49
2022-08-01T07:02:23.819Z,22.52
2022-08-01T07:03:23.791Z,22.57
2022-08-01T07:04:23.781Z,22.60
2022-08-01T07:05:23.760Z,22.62
2022-08-01T07:06:23.761Z,22.64
2022-08-01T07:07:23.761Z,22.67
2022-08-01T07:08:23.739Z,22.69
2022-08-01T07:09:23.722Z,22.67
2022-08-01T07:10:23.762Z,22.69
2022-08-01T07:11:23.698Z,22.72
2022-08-01T07:12:23.691Z,22.72
2022-08-01T07:13:23.689Z,22.77
2022-08-01T07:14:24.674Z,22.80
2022-08-01T07:15:23.689Z,22.84
2022-08-01T07:16:23.687Z,22.86
2022-08-01T07:17:23.652Z,22.86
2022-08-01T07:18:26.341Z,22.89
2022-08-01T07:19:23.611Z,22.90
2022-08-01T07:20:23.620Z,22.90
2022-08-01T07:21:39.770Z,22.96
2022-08-01T07:22:24.601Z,22.96
2022-08-01T07:23:33.103Z,23.02
2022-08-01T07:24:24.560Z,23.04
2022-08-01T07:25:23.557Z,23.08
2022-08-01T07:26:23.547Z,23.09
2022-08-01T07:27:25.350Z,23.12
2022-08-01T07:28:23.520Z,23.15
2022-08-01T07:29:23.500Z,23.17
2022-08-01T07:30:23.481Z,23.17
2022-08-01T07:31:23.500Z,23.19
2022-08-01T07:32:23.462Z,23.24
2022-08-01T07:33:23.460Z,23.31
2022-08-01T07:34:23.441Z,23.35
2022-08-01T07:35:23.450Z,23.35
2022-08-01T07:36:23.410Z,23.35
2022-08-01T07:37:48.339Z,23.39
2022-08-01T07:38:24.408Z,23.32
2022-08-01T07:39:23.379Z,23.35
2022-08-01T07:40:23.370Z,23.32
2022-08-01T07:41:52.653Z,23.35
2022-08-01T07:42:24.346Z,23.43
2022-08-01T07:43:23.349Z,23.46
2022-08-01T07:44:23.319Z,23.52
2022-08-01T07:45:23.318Z,23.57
2022-08-01T07:46:23.365Z,23.58
2022-08-01T07:47:23.289Z,23.58
2022-08-01T07:48:23.308Z,23.61
2022-08-01T07:49:23.363Z,23.64
2022-08-01T07:50:23.259Z,23.67
2022-08-01T07:51:23.248Z,23.70
2022-08-01T07:52:23.239Z,23.70
2022-08-01T07:53:23.228Z,23.65
2022-08-01T07:54:23.230Z,23.68
2022-08-01T07:55:24.209Z,23.70
2022-08-01T07:56:23.189Z,23.71
2022-08-01T07:57:23.179Z,23.71
2022-08-01T07:58:23.182Z,23.76
2022-08-01T07:59:26.094Z,23.80
2022-08-01T08:00:23.140Z,23.87
2022-08-01T08:01:23.173Z,23.80
2022-08-01T08:02:23.234Z,23.77
2022-08-01T08:03:23.119Z,23.80
2022-08-01T08:04:23.115Z,23.87
2022-08-01T08:05:58.698Z,23.89
2022-08-01T08:06:24.078Z,23.90
2022-08-01T08:07:23.069Z,23.92
2022-08-01T08:08:23.049Z,23.94
2022-08-01T08:09:23.058Z,23.94
2022-08-01T08:10:23.042Z,23.95
2022-08-01T08:11:23.029Z,24.00
2022-08-01T08:12:28.892Z,23.98
2022-08-01T08:13:24.006Z,23.98
2022-08-01T08:14:23.018Z,24.00
2022-08-01T08:15:23.978Z,24.04
2022-08-01T08:16:22.959Z,24.07
2022-08-01T08:17:22.959Z,24.12
2022-08-01T08:18:22.942Z,24.17
2022-08-01T08:19:22.938Z,24.19
2022-08-01T08:20:23.928Z,24.20
2022-08-01T08:21:22.928Z,24.23
2022-08-01T08:22:22.899Z,24.26
2022-08-01T08:23:25.448Z,24.22
2022-08-01T08:24:26.549Z,24.22
2022-08-01T08:25:22.896Z,24.20
2022-08-01T08:26:22.848Z,24.26
2022-08-01T08:27:22.860Z,24.31
2022-08-01T08:28:26.564Z,24.27
2022-08-01T08:29:23.827Z,24.32
2022-08-01T08:30:22.828Z,24.37
2022-08-01T08:31:25.189Z,24.37
2022-08-01T08:32:23.787Z,24.41
2022-08-01T08:33:22.788Z,24.39
2022-08-01T08:34:22.785Z,24.41
2022-08-01T08:35:23.122Z,24.47
2022-08-01T08:36:31.221Z,24.56
2022-08-01T08:37:23.728Z,24.57
2022-08-01T08:38:28.469Z,24.63
2022-08-01T08:39:23.733Z,24.63
2022-08-01T08:40:22.697Z,24.67
2022-08-01T08:41:22.698Z,24.71
2022-08-01T08:42:22.675Z,24.76
2022-08-01T08:43:23.400Z,24.80
2022-08-01T08:44:22.647Z,24.80
2022-08-01T08:45:22.650Z,24.88
2022-08-01T08:46:28.194Z,24.87
2022-08-01T08:47:22.618Z,24.90
2022-08-01T08:48:26.035Z,24.94
2022-08-01T08:49:23.633Z,24.94
2022-08-01T08:50:22.577Z,24.98
2022-08-01T08:51:22.606Z,25.00
2022-08-01T08:52:22.558Z,25.07
2022-08-01T08:53:22.548Z,25.00
2022-08-01T08:54:22.538Z,24.98
2022-08-01T08:55:23.528Z,25.05
2022-08-01T08:56:22.511Z,25.06
2022-08-01T08:57:22.553Z,25.07
2022-08-01T08:58:26.296Z,25.01
2022-08-01T08:59:23.487Z,25.00
2022-08-01T09:00:22.468Z,24.97
2022-08-01T09:01:22.802Z,24.95
2022-08-01T09:02:22.452Z,25.02
2022-08-01T09:03:22.512Z,25.10
2022-08-01T09:04:22.705Z,25.12
2022-08-01T09:05:22.419Z,25.15
2022-08-01T09:06:22.397Z,25.13
2022-08-01T09:07:22.430Z,25.20
2022-08-01T09:08:22.377Z,25.25
2022-08-01T09:09:22.387Z,25.25
2022-08-01T09:10:22.383Z,25.31
2022-08-01T09:11:22.861Z,25.34
2022-08-01T09:12:22.364Z,25.35
2022-08-01T09:13:22.327Z,25.43
2022-08-01T09:14:22.346Z,25.42
2022-08-01T09:15:22.314Z,25.42
2022-08-01T09:16:22.288Z,25.43
2022-08-01T09:17:22.301Z,25.50
2022-08-01T09:18:22.282Z,25.57
2022-08-01T09:19:39.822Z,25.64
2022-08-01T09:20:23.263Z,25.71
2022-08-01T09:21:22.297Z,25.79
2022-08-01T09:22:22.272Z,25.82
2022-08-01T09:23:22.220Z,25.74
2022-08-01T09:24:30.544Z,25.69
2022-08-01T09:25:23.203Z,25.74
2022-08-01T09:26:23.167Z,25.80
2022-08-01T09:27:22.820Z,25.87
2022-08-01T09:28:22.146Z,25.94
2022-08-01T09:29:37.544Z,25.98
2022-08-01T09:30:23.934Z,26.01
2022-08-01T09:31:22.117Z,26.06
2022-08-01T09:32:22.110Z,26.04
2022-08-01T09:33:22.197Z,26.08
2022-08-01T09:34:22.127Z,26.09
2022-08-01T09:35:22.078Z,26.11
2022-08-01T09:36:22.088Z,26.18
2022-08-01T09:37:24.045Z,26.22
2022-08-01T09:38:22.050Z,26.20
2022-08-01T09:39:22.027Z,26.22
2022-08-01T09:40:22.015Z,26.29
2022-08-01T09:41:22.008Z,26.32
2022-08-01T09:42:29.138Z,26.35
2022-08-01T09:43:22.996Z,26.35
2022-08-01T09:44:34.872Z,26.39
2022-08-01T09:45:23.763Z,26.46
2022-08-01T09:46:21.947Z,26.42
2022-08-01T09:47:23.820Z,26.40
2022-08-01T09:48:22.448Z,26.47
2022-08-01T09:49:22.972Z,26.46
2022-08-01T09:50:21.913Z,26.52
2022-08-01T09:51:36.098Z,26.40
2022-08-01T09:52:25.898Z,26.43
2022-08-01T09:53:27.130Z,26.46
2022-08-01T09:54:22.867Z,26.43
2022-08-01T09:55:22.856Z,26.43
2022-08-01T09:56:21.890Z,26.47
2022-08-01T09:57:21.827Z,26.42
2022-08-01T09:58:21.806Z,26.43
2022-08-01T09:59:21.819Z,26.52
2022-08-01T10:00:43.731Z,26.49
2022-08-01T10:01:22.858Z,26.54
2022-08-01T10:02:21.774Z,26.58
2022-08-01T10:03:22.803Z,26.64
2022-08-01T10:04:21.737Z,26.69
2022-08-01T10:05:21.765Z,26.68
2022-08-01T10:06:25.021Z,26.72
2022-08-01T10:07:21.715Z,26.79
2022-08-01T10:08:23.236Z,26.84
2022-08-01T10:09:21.698Z,26.94
2022-08-01T10:10:21.677Z,27.01
2022-08-01T10:11:22.676Z,27.09
2022-08-01T10:12:22.657Z,27.13
2022-08-01T10:13:21.667Z,27.13
2022-08-01T10:14:21.672Z,27.17
2022-08-01T10:15:21.638Z,27.06
2022-08-01T10:16:21.614Z,27.04
2022-08-01T10:17:22.775Z,27.10
2022-08-01T10:18:25.931Z,27.19
2022-08-01T10:19:22.576Z,27.16
2022-08-01T10:20:30.064Z,27.16
2022-08-01T10:21:56.184Z,27.16
2022-08-01T10:22:22.554Z,27.21
2022-08-01T10:23:21.542Z,27.29
2022-08-01T10:24:21.518Z,27.36
2022-08-01T10:25:42.703Z,27.39
2022-08-01T10:26:22.509Z,27.39
2022-08-01T10:27:35.857Z,27.39
2022-08-01T10:28:24.107Z,27.38
2022-08-01T10:29:24.286Z,27.39
2022-08-01T10:30:23.408Z,27.38
2022-08-01T10:31:30.517Z,27.42
2022-08-01T10:32:22.427Z,27.38
2022-08-01T10:33:50.377Z,27.36
2022-08-01T10:34:23.003Z,27.33
2022-08-01T10:35:46.728Z,27.05
2022-08-01T10:36:22.596Z,27.16
2022-08-01T10:37:21.378Z,27.19
2022-08-01T10:38:21.378Z,27.28
2022-08-01T10:39:21.355Z,27.31
2022-08-01T10:40:36.578Z,27.38
2022-08-01T10:41:22.329Z,27.32
2022-08-01T10:42:21.318Z,27.33
2022-08-01T10:43:22.217Z,27.35
2022-08-01T10:44:21.339Z,27.36
2022-08-01T10:45:21.311Z,27.16
2022-08-01T10:46:21.280Z,26.95
2022-08-01T10:47:26.796Z,27.16
2022-08-01T10:48:22.257Z,27.21
2022-08-01T10:49:21.307Z,27.23
2022-08-01T10:50:25.837Z,27.32
2022-08-01T10:51:22.218Z,27.19
2022-08-01T10:52:21.228Z,27.29
2022-08-01T10:53:23.912Z,27.38
2022-08-01T10:54:22.177Z,27.42
2022-08-01T10:55:21.179Z,27.46
2022-08-01T10:56:21.166Z,27.48
2022-08-01T10:57:23.183Z,27.47
2022-08-01T10:58:22.139Z,27.31
2022-08-01T10:59:49.128Z,27.28
2022-08-01T11:00:22.135Z,27.28
2022-08-01T11:01:21.242Z,27.20
2022-08-01T11:02:21.087Z,27.13
2022-08-01T11:03:35.883Z,27.10
2022-08-01T11:04:22.066Z,27.11
2022-08-01T11:05:21.067Z,27.10
2022-08-01T11:06:21.048Z,27.11
2022-08-01T11:07:21.048Z,27.09
2022-08-01T11:08:21.048Z,27.01
2022-08-01T11:09:21.036Z,27.02
2022-08-01T11:10:23.631Z,27.04
2022-08-01T11:11:21.007Z,27.24
2022-08-01T11:12:24.933Z,27.28
2022-08-01T11:13:20.968Z,27.32
2022-08-01T11:14:26.356Z,27.41
2022-08-01T11:15:29.513Z,27.58
2022-08-01T11:16:24.325Z,27.66
2022-08-01T11:17:20.937Z,27.71
2022-08-01T11:18:20.917Z,27.57
2022-08-01T11:19:21.896Z,27.36
2022-08-01T11:20:20.887Z,27.24
2022-08-01T11:21:57.110Z,27.05
2022-08-01T11:22:25.265Z,26.95
2022-08-01T11:23:21.578Z,26.84
2022-08-01T11:24:20.847Z,26.74
2022-08-01T11:25:20.879Z,26.64
2022-08-01T11:26:29.193Z,26.67
2022-08-01T11:27:23.414Z,26.55
2022-08-01T11:28:29.163Z,26.42
2022-08-01T11:29:22.778Z,26.47
2022-08-01T11:30:21.560Z,26.73
2022-08-01T11:31:20.811Z,26.89
2022-08-01T11:32:20.863Z,27.02
2022-08-01T11:33:21.749Z,27.19
2022-08-01T11:34:20.748Z,27.43
2022-08-01T11:35:20.717Z,27.69
2022-08-01T11:36:36.817Z,27.85
2022-08-01T11:37:21.699Z,27.95
2022-08-01T11:38:20.685Z,28.10
2022-08-01T11:39:20.692Z,28.21
2022-08-01T11:40:20.666Z,28.36
2022-08-01T11:41:20.668Z,28.38
2022-08-01T11:42:21.643Z,28.26
2022-08-01T11:43:20.660Z,28.19
2022-08-01T11:44:21.002Z,27.98
2022-08-01T11:45:20.617Z,27.85
2022-08-01T11:46:20.603Z,27.76
2022-08-01T11:47:21.408Z,27.70
2022-08-01T11:48:20.576Z,27.79
2022-08-01T11:49:20.622Z,28.01
2022-08-01T11:50:20.605Z,28.25
2022-08-01T11:51:25.546Z,28.47
2022-08-01T11:52:21.537Z,28.66
2022-08-01T11:53:20.529Z,28.78
2022-08-01T11:54:35.646Z,28.73
2022-08-01T11:55:21.528Z,28.65
2022-08-01T11:56:20.486Z,28.58
2022-08-01T11:57:20.480Z,28.31
2022-08-01T11:58:22.259Z,28.38
2022-08-01T11:59:21.456Z,28.50
2022-08-01T12:00:20.457Z,28.58
2022-08-01T12:01:20.457Z,28.69
2022-08-01T12:02:30.251Z,28.85
2022-08-01T12:03:33.022Z,28.93
2022-08-01T12:04:21.417Z,29.04
2022-08-01T12:05:20.378Z,29.15
2022-08-01T12:06:20.378Z,29.28
2022-08-01T12:07:20.359Z,29.38
2022-08-01T12:08:20.357Z,29.45
2022-08-01T12:09:20.338Z,29.34
2022-08-01T12:10:20.353Z,29.45
2022-08-01T12:11:20.328Z,29.44
2022-08-01T12:12:20.297Z,29.41
2022-08-01T12:13:20.298Z,29.33
2022-08-01T12:14:20.278Z,29.22
2022-08-01T12:15:20.276Z,29.25
2022-08-01T12:16:20.268Z,29.22
2022-08-01T12:17:20.247Z,29.22
2022-08-01T12:18:20.238Z,29.25
2022-08-01T12:19:20.228Z,29.25
2022-08-01T12:20:20.209Z,29.25
2022-08-01T12:21:20.218Z,29.29
2022-08-01T12:22:20.188Z,29.28
2022-08-01T12:23:20.187Z,29.34
2022-08-01T12:24:20.168Z,29.15
2022-08-01T12:25:20.157Z,29.06
2022-08-01T12:26:25.865Z,28.96
2022-08-01T12:27:21.138Z,29.04
2022-08-01T12:28:20.192Z,29.10
2022-08-01T12:29:20.119Z,29.20
2022-08-01T12:30:20.106Z,29.26
2022-08-01T12:31:20.106Z,29.31
2022-08-01T12:32:20.085Z,29.28
2022-08-01T12:33:21.077Z,29.25
2022-08-01T12:34:20.070Z,29.20
2022-08-01T12:35:20.056Z,29.22
2022-08-01T12:36:20.053Z,29.33
2022-08-01T12:37:20.038Z,29.34
2022-08-01T12:38:20.058Z,29.34
2022-08-01T12:39:20.038Z,29.47
2022-08-01T12:40:19.998Z,29.56
2022-08-01T12:41:19.992Z,29.45
2022-08-01T12:42:19.990Z,29.37
2022-08-01T12:43:28.311Z,29.29
2022-08-01T12:44:20.948Z,29.20
2022-08-01T12:45:19.959Z,29.19
2022-08-01T12:46:19.926Z,29.08
2022-08-01T12:47:19.929Z,29.01
2022-08-01T12:48:19.920Z,28.91
2022-08-01T12:49:19.966Z,28.85
2022-08-01T12:50:19.894Z,28.75
2022-08-01T12:51:19.868Z,28.78
2022-08-01T12:52:19.858Z,28.78